sensor_id;sensor_type;location;lat;lon;timestamp;temperature;humidity
19330;DHT22;9799;48.214;16.388;2023-03-23T00:01:37;13.70;99.90
19330;DHT22;9799;48.214;16.388;2023-03-23T00:04:58;13.70;99.90
19330;DHT22;9799;48.214;16.388;2023-03-23T00:08:20;13.60;99.90
19330;DHT22;9799;48.214;16.388;2023-03-23T00:11:42;13.50;99.90
19330;DHT22;9799;48.214;16.388;2023-03-23T00:15:06;13.50;99.90
19330;DHT22;9799;48.214;16.388;2023-03-23T00:18:32;13.50;99.90
19330;DHT22;9799;48.214;16.388;2023-03-23T00:21:55;13.50;99.90
19330;DHT22;9799;48.214;16.388;2023-03-23T00:25:20;13.50;99.90
19330;DHT22;9799;48.214;16.388;2023-03-23T00:28:41;13.40;99.90
19330;DHT22;9799;48.214;16.388;2023-03-23T00:32:04;13.30;99.90
19330;DHT22;9799;48.214;16.388;2023-03-23T00:35:25;13.20;99.90
19330;DHT22;9799;48.214;16.388;2023-03-23T00:38:47;13.20;99.90
19330;DHT22;9799;48.214;16.388;2023-03-23T00:42:08;13.20;99.90
19330;DHT22;9799;48.214;16.388;2023-03-23T00:45:30;13.20;99.90
19330;DHT22;9799;48.214;16.388;2023-03-23T00:48:56;13.10;99.90
19330;DHT22;9799;48.214;16.388;2023-03-23T00:52:17;13.20;99.90
19330;DHT22;9799;48.214;16.388;2023-03-23T00:55:40;13.20;99.90
19330;DHT22;9799;48.214;16.388;2023-03-23T00:59:02;13.20;99.90
19330;DHT22;9799;48.214;16.388;2023-03-23T01:02:23;13.00;99.90
19330;DHT22;9799;48.214;16.388;2023-03-23T01:05:47;13.00;99.90
19330;DHT22;9799;48.214;16.388;2023-03-23T01:09:14;13.00;99.90
19330;DHT22;9799;48.214;16.388;2023-03-23T01:12:36;13.00;99.90
19330;DHT22;9799;48.214;16.388;2023-03-23T01:15:57;13.00;99.90
19330;DHT22;9799;48.214;16.388;2023-03-23T01:19:18;13.00;99.90
19330;DHT22;9799;48.214;16.388;2023-03-23T01:22:41;13.00;99.90
19330;DHT22;9799;48.214;16.388;2023-03-23T01:26:04;12.90;99.90
19330;DHT22;9799;48.214;16.388;2023-03-23T01:29:25;12.70;99.90
19330;DHT22;9799;48.214;16.388;2023-03-23T01:32:46;12.60;99.90
19330;DHT22;9799;48.214;16.388;2023-03-23T01:36:10;12.50;99.90
19330;DHT22;9799;48.214;16.388;2023-03-23T01:39:35;12.40;99.90
19330;DHT22;9799;48.214;16.388;2023-03-23T01:42:56;12.30;99.90
19330;DHT22;9799;48.214;16.388;2023-03-23T01:46:17;12.30;99.90
19330;DHT22;9799;48.214;16.388;2023-03-23T01:49:42;12.30;99.90
19330;DHT22;9799;48.214;16.388;2023-03-23T01:53:06;12.30;99.90
19330;DHT22;9799;48.214;16.388;2023-03-23T01:56:37;12.30;99.90
19330;DHT22;9799;48.214;16.388;2023-03-23T02:00:04;12.10;99.90
19330;DHT22;9799;48.214;16.388;2023-03-23T02:03:35;12.10;99.90
19330;DHT22;9799;48.214;16.388;2023-03-23T02:06:58;12.10;99.90
19330;DHT22;9799;48.214;16.388;2023-03-23T02:10:20;12.10;99.90
19330;DHT22;9799;48.214;16.388;2023-03-23T02:13:42;12.00;99.90
19330;DHT22;9799;48.214;16.388;2023-03-23T02:17:07;11.90;99.90
19330;DHT22;9799;48.214;16.388;2023-03-23T02:24:43;11.70;99.90
19330;DHT22;9799;48.214;16.388;2023-03-23T02:28:24;11.70;99.90
19330;DHT22;9799;48.214;16.388;2023-03-23T02:32:04;11.70;99.90
19330;DHT22;9799;48.214;16.388;2023-03-23T02:35:32;11.60;99.90
19330;DHT22;9799;48.214;16.388;2023-03-23T02:38:59;11.60;99.90
19330;DHT22;9799;48.214;16.388;2023-03-23T02:42:24;11.50;99.90
19330;DHT22;9799;48.214;16.388;2023-03-23T02:45:48;11.60;99.90
19330;DHT22;9799;48.214;16.388;2023-03-23T02:49:13;11.50;99.90
19330;DHT22;9799;48.214;16.388;2023-03-23T02:52:39;11.40;99.90
19330;DHT22;9799;48.214;16.388;2023-03-23T02:56:01;11.50;99.90
19330;DHT22;9799;48.214;16.388;2023-03-23T02:59:25;11.40;99.90
19330;DHT22;9799;48.214;16.388;2023-03-23T03:02:47;11.60;99.90
19330;DHT22;9799;48.214;16.388;2023-03-23T03:06:19;11.80;99.90
19330;DHT22;9799;48.214;16.388;2023-03-23T03:09:48;11.70;99.90
19330;DHT22;9799;48.214;16.388;2023-03-23T03:13:16;11.50;99.90
19330;DHT22;9799;48.214;16.388;2023-03-23T03:16:45;11.40;99.90
19330;DHT22;9799;48.214;16.388;2023-03-23T03:20:08;11.30;99.90
19330;DHT22;9799;48.214;16.388;2023-03-23T03:23:32;11.30;99.90
19330;DHT22;9799;48.214;16.388;2023-03-23T03:26:58;11.30;99.90
19330;DHT22;9799;48.214;16.388;2023-03-23T03:30:25;11.30;99.90
19330;DHT22;9799;48.214;16.388;2023-03-23T03:33:46;11.40;99.90
19330;DHT22;9799;48.214;16.388;2023-03-23T03:37:08;11.30;99.90
19330;DHT22;9799;48.214;16.388;2023-03-23T03:40:31;11.20;99.90
19330;DHT22;9799;48.214;16.388;2023-03-23T03:43:54;11.20;99.90
19330;DHT22;9799;48.214;16.388;2023-03-23T03:47:15;11.10;99.90
19330;DHT22;9799;48.214;16.388;2023-03-23T03:50:36;11.00;99.90
19330;DHT22;9799;48.214;16.388;2023-03-23T03:53:57;11.00;99.90
19330;DHT22;9799;48.214;16.388;2023-03-23T03:57:18;11.00;99.90
19330;DHT22;9799;48.214;16.388;2023-03-23T04:00:41;10.90;99.90
19330;DHT22;9799;48.214;16.388;2023-03-23T04:04:03;10.90;99.90
19330;DHT22;9799;48.214;16.388;2023-03-23T04:07:26;10.80;99.90
19330;DHT22;9799;48.214;16.388;2023-03-23T04:10:49;10.90;99.90
19330;DHT22;9799;48.214;16.388;2023-03-23T04:14:11;10.80;99.90
19330;DHT22;9799;48.214;16.388;2023-03-23T04:17:34;10.70;99.90
19330;DHT22;9799;48.214;16.388;2023-03-23T04:20:56;10.70;99.90
19330;DHT22;9799;48.214;16.388;2023-03-23T04:24:18;10.60;99.90
19330;DHT22;9799;48.214;16.388;2023-03-23T04:27:41;10.60;99.90
19330;DHT22;9799;48.214;16.388;2023-03-23T04:31:05;10.50;99.90
19330;DHT22;9799;48.214;16.388;2023-03-23T04:34:28;10.50;99.90
19330;DHT22;9799;48.214;16.388;2023-03-23T04:37:53;10.60;99.90
19330;DHT22;9799;48.214;16.388;2023-03-23T04:41:15;10.70;99.90
19330;DHT22;9799;48.214;16.388;2023-03-23T04:44:36;10.90;99.90
19330;DHT22;9799;48.214;16.388;2023-03-23T04:47:57;10.80;99.90
19330;DHT22;9799;48.214;16.388;2023-03-23T04:51:19;10.70;99.90
19330;DHT22;9799;48.214;16.388;2023-03-23T04:54:41;10.60;99.90
19330;DHT22;9799;48.214;16.388;2023-03-23T04:58:02;10.80;99.90
19330;DHT22;9799;48.214;16.388;2023-03-23T05:01:24;10.90;99.90
19330;DHT22;9799;48.214;16.388;2023-03-23T05:04:47;10.90;99.90
19330;DHT22;9799;48.214;16.388;2023-03-23T05:08:10;10.80;99.90
19330;DHT22;9799;48.214;16.388;2023-03-23T05:11:31;10.70;99.90
19330;DHT22;9799;48.214;16.388;2023-03-23T05:14:52;10.60;99.90
19330;DHT22;9799;48.214;16.388;2023-03-23T05:18:14;10.50;99.90
19330;DHT22;9799;48.214;16.388;2023-03-23T05:21:36;10.50;99.90
19330;DHT22;9799;48.214;16.388;2023-03-23T05:24:58;10.50;99.90
19330;DHT22;9799;48.214;16.388;2023-03-23T05:28:22;10.50;99.90
19330;DHT22;9799;48.214;16.388;2023-03-23T05:31:43;10.40;99.90
19330;DHT22;9799;48.214;16.388;2023-03-23T05:35:05;10.40;99.90
19330;DHT22;9799;48.214;16.388;2023-03-23T05:38:26;10.30;99.90
19330;DHT22;9799;48.214;16.388;2023-03-23T05:41:49;10.20;99.90
19330;DHT22;9799;48.214;16.388;2023-03-23T05:45:10;10.20;99.90
19330;DHT22;9799;48.214;16.388;2023-03-23T05:48:32;10.20;99.90
19330;DHT22;9799;48.214;16.388;2023-03-23T05:51:53;10.30;99.90
19330;DHT22;9799;48.214;16.388;2023-03-23T05:55:15;10.30;99.90
19330;DHT22;9799;48.214;16.388;2023-03-23T05:58:37;10.30;99.90
19330;DHT22;9799;48.214;16.388;2023-03-23T06:01:59;10.40;99.90
19330;DHT22;9799;48.214;16.388;2023-03-23T06:05:20;10.50;99.90
19330;DHT22;9799;48.214;16.388;2023-03-23T06:08:42;10.60;99.90
19330;DHT22;9799;48.214;16.388;2023-03-23T06:12:04;10.70;99.90
19330;DHT22;9799;48.214;16.388;2023-03-23T06:15:27;10.80;99.90
19330;DHT22;9799;48.214;16.388;2023-03-23T06:18:51;10.90;99.90
19330;DHT22;9799;48.214;16.388;2023-03-23T06:22:12;10.90;99.90
19330;DHT22;9799;48.214;16.388;2023-03-23T06:25:33;10.90;99.90
19330;DHT22;9799;48.214;16.388;2023-03-23T06:28:55;11.00;99.90
19330;DHT22;9799;48.214;16.388;2023-03-23T06:32:18;11.10;99.90
19330;DHT22;9799;48.214;16.388;2023-03-23T06:35:40;11.20;99.90
19330;DHT22;9799;48.214;16.388;2023-03-23T06:39:03;11.20;99.90
19330;DHT22;9799;48.214;16.388;2023-03-23T06:42:25;11.40;99.90
19330;DHT22;9799;48.214;16.388;2023-03-23T06:45:46;11.50;99.90
19330;DHT22;9799;48.214;16.388;2023-03-23T06:49:09;11.70;99.90
19330;DHT22;9799;48.214;16.388;2023-03-23T06:52:30;11.80;99.90
19330;DHT22;9799;48.214;16.388;2023-03-23T06:55:51;12.00;99.90
19330;DHT22;9799;48.214;16.388;2023-03-23T06:59:12;12.00;99.90
19330;DHT22;9799;48.214;16.388;2023-03-23T07:02:34;11.90;99.90
19330;DHT22;9799;48.214;16.388;2023-03-23T07:05:57;12.10;99.90
19330;DHT22;9799;48.214;16.388;2023-03-23T07:09:18;12.10;99.90
19330;DHT22;9799;48.214;16.388;2023-03-23T07:12:40;12.20;99.90
19330;DHT22;9799;48.214;16.388;2023-03-23T07:16:04;12.10;99.90
19330;DHT22;9799;48.214;16.388;2023-03-23T07:19:26;12.10;99.90
19330;DHT22;9799;48.214;16.388;2023-03-23T07:22:49;12.00;99.90
19330;DHT22;9799;48.214;16.388;2023-03-23T07:26:10;12.10;99.90
19330;DHT22;9799;48.214;16.388;2023-03-23T07:29:32;12.20;99.90
19330;DHT22;9799;48.214;16.388;2023-03-23T07:32:55;12.30;99.90
19330;DHT22;9799;48.214;16.388;2023-03-23T07:36:16;12.30;99.90
19330;DHT22;9799;48.214;16.388;2023-03-23T07:39:39;12.30;99.90
19330;DHT22;9799;48.214;16.388;2023-03-23T07:43:02;12.30;99.90
19330;DHT22;9799;48.214;16.388;2023-03-23T07:46:23;12.30;99.90
19330;DHT22;9799;48.214;16.388;2023-03-23T07:49:44;12.40;99.90
19330;DHT22;9799;48.214;16.388;2023-03-23T07:53:06;12.50;99.90
19330;DHT22;9799;48.214;16.388;2023-03-23T07:56:29;12.70;99.90
19330;DHT22;9799;48.214;16.388;2023-03-23T07:59:50;12.80;99.90
19330;DHT22;9799;48.214;16.388;2023-03-23T08:03:12;12.60;99.90
19330;DHT22;9799;48.214;16.388;2023-03-23T08:06:34;12.40;99.90
19330;DHT22;9799;48.214;16.388;2023-03-23T08:09:55;12.50;99.90
19330;DHT22;9799;48.214;16.388;2023-03-23T08:13:18;12.50;99.90
19330;DHT22;9799;48.214;16.388;2023-03-23T08:16:39;12.70;99.90
19330;DHT22;9799;48.214;16.388;2023-03-23T08:20:01;12.70;99.90
19330;DHT22;9799;48.214;16.388;2023-03-23T08:23:28;12.80;99.90
19330;DHT22;9799;48.214;16.388;2023-03-23T08:26:50;12.90;99.90
19330;DHT22;9799;48.214;16.388;2023-03-23T08:30:15;13.10;99.90
19330;DHT22;9799;48.214;16.388;2023-03-23T08:33:36;13.10;99.90
19330;DHT22;9799;48.214;16.388;2023-03-23T08:36:58;13.10;99.90
19330;DHT22;9799;48.214;16.388;2023-03-23T08:40:21;13.00;99.90
19330;DHT22;9799;48.214;16.388;2023-03-23T08:43:43;13.00;99.90
19330;DHT22;9799;48.214;16.388;2023-03-23T08:47:05;13.00;99.90
19330;DHT22;9799;48.214;16.388;2023-03-23T08:50:27;13.20;99.90
19330;DHT22;9799;48.214;16.388;2023-03-23T08:53:50;13.40;99.90
19330;DHT22;9799;48.214;16.388;2023-03-23T08:57:12;13.60;99.90
19330;DHT22;9799;48.214;16.388;2023-03-23T09:00:34;13.90;99.90
19330;DHT22;9799;48.214;16.388;2023-03-23T09:03:56;14.70;99.90
19330;DHT22;9799;48.214;16.388;2023-03-23T09:07:18;14.50;99.90
19330;DHT22;9799;48.214;16.388;2023-03-23T09:10:40;14.10;99.90
19330;DHT22;9799;48.214;16.388;2023-03-23T09:14:01;14.30;99.90
19330;DHT22;9799;48.214;16.388;2023-03-23T09:17:23;14.50;99.90
19330;DHT22;9799;48.214;16.388;2023-03-23T09:20:45;14.60;99.90
19330;DHT22;9799;48.214;16.388;2023-03-23T09:24:08;14.80;99.90
19330;DHT22;9799;48.214;16.388;2023-03-23T09:27:29;14.90;99.90
19330;DHT22;9799;48.214;16.388;2023-03-23T09:30:50;14.90;99.90
19330;DHT22;9799;48.214;16.388;2023-03-23T09:34:12;14.90;99.90
19330;DHT22;9799;48.214;16.388;2023-03-23T09:37:36;15.10;99.90
19330;DHT22;9799;48.214;16.388;2023-03-23T09:41:03;15.20;99.90
19330;DHT22;9799;48.214;16.388;2023-03-23T09:44:31;15.20;99.90
19330;DHT22;9799;48.214;16.388;2023-03-23T09:48:11;15.30;99.90
19330;DHT22;9799;48.214;16.388;2023-03-23T09:51:42;15.30;99.90
19330;DHT22;9799;48.214;16.388;2023-03-23T09:55:09;15.50;99.90
19330;DHT22;9799;48.214;16.388;2023-03-23T09:58:36;15.50;99.90
19330;DHT22;9799;48.214;16.388;2023-03-23T10:02:11;15.60;99.90
19330;DHT22;9799;48.214;16.388;2023-03-23T10:05:36;15.80;99.90
19330;DHT22;9799;48.214;16.388;2023-03-23T10:08:59;16.00;99.90
19330;DHT22;9799;48.214;16.388;2023-03-23T10:12:27;16.20;99.90
19330;DHT22;9799;48.214;16.388;2023-03-23T10:15:50;16.20;99.90
19330;DHT22;9799;48.214;16.388;2023-03-23T10:19:17;16.20;99.90
19330;DHT22;9799;48.214;16.388;2023-03-23T10:22:47;16.20;99.90
19330;DHT22;9799;48.214;16.388;2023-03-23T10:26:33;16.30;99.90
19330;DHT22;9799;48.214;16.388;2023-03-23T10:30:01;16.40;99.90
19330;DHT22;9799;48.214;16.388;2023-03-23T10:33:26;16.60;99.90
19330;DHT22;9799;48.214;16.388;2023-03-23T10:36:59;16.80;99.90
19330;DHT22;9799;48.214;16.388;2023-03-23T10:40:27;16.90;99.90
19330;DHT22;9799;48.214;16.388;2023-03-23T10:43:50;17.00;99.90
19330;DHT22;9799;48.214;16.388;2023-03-23T10:47:14;17.00;99.90
19330;DHT22;9799;48.214;16.388;2023-03-23T10:50:38;17.10;99.90
19330;DHT22;9799;48.214;16.388;2023-03-23T10:54:04;17.20;99.90
19330;DHT22;9799;48.214;16.388;2023-03-23T10:57:27;17.20;99.90
19330;DHT22;9799;48.214;16.388;2023-03-23T11:00:49;17.30;99.90
19330;DHT22;9799;48.214;16.388;2023-03-23T11:04:14;17.50;99.90
19330;DHT22;9799;48.214;16.388;2023-03-23T11:07:36;17.70;99.90
19330;DHT22;9799;48.214;16.388;2023-03-23T11:10:58;17.70;99.90
19330;DHT22;9799;48.214;16.388;2023-03-23T11:14:25;17.80;99.90
19330;DHT22;9799;48.214;16.388;2023-03-23T11:17:55;18.10;99.90
19330;DHT22;9799;48.214;16.388;2023-03-23T11:21:19;18.40;99.90
19330;DHT22;9799;48.214;16.388;2023-03-23T11:24:43;18.50;99.90
19330;DHT22;9799;48.214;16.388;2023-03-23T11:28:05;18.50;99.90
19330;DHT22;9799;48.214;16.388;2023-03-23T11:31:29;18.50;99.90
19330;DHT22;9799;48.214;16.388;2023-03-23T11:34:54;18.50;99.90
19330;DHT22;9799;48.214;16.388;2023-03-23T11:38:20;18.80;99.10
19330;DHT22;9799;48.214;16.388;2023-03-23T11:41:42;18.80;97.80
19330;DHT22;9799;48.214;16.388;2023-03-23T11:45:15;18.90;97.80
19330;DHT22;9799;48.214;16.388;2023-03-23T11:48:41;18.80;98.60
19330;DHT22;9799;48.214;16.388;2023-03-23T11:52:11;18.80;98.00
19330;DHT22;9799;48.214;16.388;2023-03-23T11:55:49;18.90;97.90
19330;DHT22;9799;48.214;16.388;2023-03-23T11:59:14;18.90;96.90
19330;DHT22;9799;48.214;16.388;2023-03-23T12:06:30;19.10;96.20
19330;DHT22;9799;48.214;16.388;2023-03-23T12:10:01;19.10;96.80
19330;DHT22;9799;48.214;16.388;2023-03-23T12:17:22;19.20;94.60
19330;DHT22;9799;48.214;16.388;2023-03-23T12:20:57;19.20;94.60
19330;DHT22;9799;48.214;16.388;2023-03-23T12:24:33;19.20;95.70
19330;DHT22;9799;48.214;16.388;2023-03-23T12:28:02;19.20;95.60
19330;DHT22;9799;48.214;16.388;2023-03-23T12:31:32;19.30;95.50
19330;DHT22;9799;48.214;16.388;2023-03-23T12:35:00;19.40;95.40
19330;DHT22;9799;48.214;16.388;2023-03-23T12:38:50;19.50;95.00
19330;DHT22;9799;48.214;16.388;2023-03-23T12:42:18;19.60;94.80
19330;DHT22;9799;48.214;16.388;2023-03-23T12:46:09;19.40;94.50
19330;DHT22;9799;48.214;16.388;2023-03-23T12:49:39;19.50;94.40
19330;DHT22;9799;48.214;16.388;2023-03-23T12:53:05;19.50;94.20
19330;DHT22;9799;48.214;16.388;2023-03-23T12:56:32;19.50;94.40
19330;DHT22;9799;48.214;16.388;2023-03-23T12:59:59;19.50;94.50
19330;DHT22;9799;48.214;16.388;2023-03-23T13:03:27;19.60;93.90
19330;DHT22;9799;48.214;16.388;2023-03-23T13:06:51;19.60;94.60
19330;DHT22;9799;48.214;16.388;2023-03-23T13:10:19;19.60;94.50
19330;DHT22;9799;48.214;16.388;2023-03-23T13:13:45;19.70;94.90
19330;DHT22;9799;48.214;16.388;2023-03-23T13:17:20;20.00;93.20
19330;DHT22;9799;48.214;16.388;2023-03-23T13:21:07;20.10;93.50
19330;DHT22;9799;48.214;16.388;2023-03-23T13:24:34;20.20;92.40
19330;DHT22;9799;48.214;16.388;2023-03-23T13:27:58;20.10;91.90
19330;DHT22;9799;48.214;16.388;2023-03-23T13:31:22;20.00;91.30
19330;DHT22;9799;48.214;16.388;2023-03-23T13:34:47;20.10;90.60
19330;DHT22;9799;48.214;16.388;2023-03-23T13:38:17;20.10;90.10
19330;DHT22;9799;48.214;16.388;2023-03-23T13:41:48;20.10;90.00
19330;DHT22;9799;48.214;16.388;2023-03-23T13:45:20;20.10;90.10
19330;DHT22;9799;48.214;16.388;2023-03-23T13:48:45;20.20;90.40
19330;DHT22;9799;48.214;16.388;2023-03-23T13:52:21;20.20;90.90
19330;DHT22;9799;48.214;16.388;2023-03-23T13:55:49;20.10;90.70
19330;DHT22;9799;48.214;16.388;2023-03-23T13:59:16;20.00;90.80
19330;DHT22;9799;48.214;16.388;2023-03-23T14:02:39;20.00;91.00
19330;DHT22;9799;48.214;16.388;2023-03-23T14:06:03;20.10;91.00
19330;DHT22;9799;48.214;16.388;2023-03-23T14:09:32;20.10;90.60
19330;DHT22;9799;48.214;16.388;2023-03-23T14:12:53;20.10;90.80
19330;DHT22;9799;48.214;16.388;2023-03-23T14:16:19;20.20;90.80
19330;DHT22;9799;48.214;16.388;2023-03-23T14:19:42;20.10;90.80
19330;DHT22;9799;48.214;16.388;2023-03-23T14:23:05;20.20;90.50
19330;DHT22;9799;48.214;16.388;2023-03-23T14:26:26;20.40;90.40
19330;DHT22;9799;48.214;16.388;2023-03-23T14:29:58;20.40;90.20
19330;DHT22;9799;48.214;16.388;2023-03-23T14:33:21;20.50;90.00
19330;DHT22;9799;48.214;16.388;2023-03-23T14:36:43;20.50;89.60
19330;DHT22;9799;48.214;16.388;2023-03-23T14:40:05;20.50;89.40
19330;DHT22;9799;48.214;16.388;2023-03-23T14:43:27;20.60;88.90
19330;DHT22;9799;48.214;16.388;2023-03-23T14:46:49;20.60;88.70
19330;DHT22;9799;48.214;16.388;2023-03-23T14:50:25;20.60;87.70
19330;DHT22;9799;48.214;16.388;2023-03-23T14:53:48;20.50;87.30
19330;DHT22;9799;48.214;16.388;2023-03-23T14:57:13;20.60;87.60
19330;DHT22;9799;48.214;16.388;2023-03-23T15:00:37;20.60;87.10
19330;DHT22;9799;48.214;16.388;2023-03-23T15:04:03;20.60;86.80
19330;DHT22;9799;48.214;16.388;2023-03-23T15:07:29;20.60;87.20
19330;DHT22;9799;48.214;16.388;2023-03-23T15:10:53;20.50;87.40
19330;DHT22;9799;48.214;16.388;2023-03-23T15:14:17;20.50;87.30
19330;DHT22;9799;48.214;16.388;2023-03-23T15:17:46;20.50;86.90
19330;DHT22;9799;48.214;16.388;2023-03-23T15:21:18;20.50;86.80
19330;DHT22;9799;48.214;16.388;2023-03-23T15:24:41;20.50;86.40
19330;DHT22;9799;48.214;16.388;2023-03-23T15:28:14;20.50;84.70
19330;DHT22;9799;48.214;16.388;2023-03-23T15:31:39;20.50;84.50
19330;DHT22;9799;48.214;16.388;2023-03-23T15:35:09;20.40;85.30
19330;DHT22;9799;48.214;16.388;2023-03-23T15:38:33;20.40;84.20
19330;DHT22;9799;48.214;16.388;2023-03-23T15:41:57;20.40;83.40
19330;DHT22;9799;48.214;16.388;2023-03-23T15:45:25;20.40;81.70
19330;DHT22;9799;48.214;16.388;2023-03-23T15:48:49;20.30;81.00
19330;DHT22;9799;48.214;16.388;2023-03-23T15:52:11;20.30;81.60
19330;DHT22;9799;48.214;16.388;2023-03-23T15:55:36;20.30;81.60
19330;DHT22;9799;48.214;16.388;2023-03-23T15:58:59;20.40;80.20
19330;DHT22;9799;48.214;16.388;2023-03-23T16:02:22;20.40;80.00
19330;DHT22;9799;48.214;16.388;2023-03-23T16:05:44;20.40;79.50
19330;DHT22;9799;48.214;16.388;2023-03-23T16:09:06;20.20;80.80
19330;DHT22;9799;48.214;16.388;2023-03-23T16:12:29;20.30;81.40
19330;DHT22;9799;48.214;16.388;2023-03-23T16:15:53;20.20;83.90
19330;DHT22;9799;48.214;16.388;2023-03-23T16:19:15;19.90;85.00
19330;DHT22;9799;48.214;16.388;2023-03-23T16:22:37;20.00;84.20
19330;DHT22;9799;48.214;16.388;2023-03-23T16:25:58;20.00;84.40
19330;DHT22;9799;48.214;16.388;2023-03-23T16:29:19;20.00;83.70
19330;DHT22;9799;48.214;16.388;2023-03-23T16:32:42;20.00;83.90
19330;DHT22;9799;48.214;16.388;2023-03-23T16:36:04;20.00;84.20
19330;DHT22;9799;48.214;16.388;2023-03-23T16:39:26;19.80;84.70
19330;DHT22;9799;48.214;16.388;2023-03-23T16:42:48;19.70;84.90
19330;DHT22;9799;48.214;16.388;2023-03-23T16:46:10;19.70;85.20
19330;DHT22;9799;48.214;16.388;2023-03-23T16:49:33;19.60;85.50
19330;DHT22;9799;48.214;16.388;2023-03-23T16:52:54;19.70;85.60
19330;DHT22;9799;48.214;16.388;2023-03-23T16:56:16;19.70;86.40
19330;DHT22;9799;48.214;16.388;2023-03-23T16:59:37;19.50;86.60
19330;DHT22;9799;48.214;16.388;2023-03-23T17:02:58;19.50;86.90
19330;DHT22;9799;48.214;16.388;2023-03-23T17:06:21;19.30;88.10
19330;DHT22;9799;48.214;16.388;2023-03-23T17:09:42;19.20;88.10
19330;DHT22;9799;48.214;16.388;2023-03-23T17:13:04;19.20;88.50
19330;DHT22;9799;48.214;16.388;2023-03-23T17:16:26;19.30;89.50
19330;DHT22;9799;48.214;16.388;2023-03-23T17:19:47;19.40;89.00
19330;DHT22;9799;48.214;16.388;2023-03-23T17:23:10;19.30;89.40
19330;DHT22;9799;48.214;16.388;2023-03-23T17:26:31;19.10;90.20
19330;DHT22;9799;48.214;16.388;2023-03-23T17:29:53;19.20;90.00
19330;DHT22;9799;48.214;16.388;2023-03-23T17:33:15;19.20;90.20
19330;DHT22;9799;48.214;16.388;2023-03-23T17:36:36;19.20;90.20
19330;DHT22;9799;48.214;16.388;2023-03-23T17:39:59;19.10;90.40
19330;DHT22;9799;48.214;16.388;2023-03-23T17:43:21;19.00;90.80
19330;DHT22;9799;48.214;16.388;2023-03-23T17:46:42;18.90;91.10
19330;DHT22;9799;48.214;16.388;2023-03-23T17:50:05;18.90;91.30
19330;DHT22;9799;48.214;16.388;2023-03-23T17:53:30;18.90;91.60
19330;DHT22;9799;48.214;16.388;2023-03-23T17:56:56;18.90;91.70
19330;DHT22;9799;48.214;16.388;2023-03-23T18:00:20;18.80;92.30
19330;DHT22;9799;48.214;16.388;2023-03-23T18:03:43;18.80;92.70
19330;DHT22;9799;48.214;16.388;2023-03-23T18:07:05;18.70;93.00
19330;DHT22;9799;48.214;16.388;2023-03-23T18:10:28;18.60;93.30
19330;DHT22;9799;48.214;16.388;2023-03-23T18:13:52;18.60;93.50
19330;DHT22;9799;48.214;16.388;2023-03-23T18:17:15;18.50;93.70
19330;DHT22;9799;48.214;16.388;2023-03-23T18:20:37;18.50;93.90
19330;DHT22;9799;48.214;16.388;2023-03-23T18:24:00;18.50;94.10
19330;DHT22;9799;48.214;16.388;2023-03-23T18:27:21;18.40;94.50
19330;DHT22;9799;48.214;16.388;2023-03-23T18:30:45;18.30;94.70
19330;DHT22;9799;48.214;16.388;2023-03-23T18:34:08;18.20;94.80
19330;DHT22;9799;48.214;16.388;2023-03-23T18:37:32;18.20;94.90
19330;DHT22;9799;48.214;16.388;2023-03-23T18:40:57;18.20;95.00
19330;DHT22;9799;48.214;16.388;2023-03-23T18:44:20;18.10;95.20
19330;DHT22;9799;48.214;16.388;2023-03-23T18:47:44;18.20;95.20
19330;DHT22;9799;48.214;16.388;2023-03-23T18:51:06;18.20;95.30
19330;DHT22;9799;48.214;16.388;2023-03-23T18:54:29;18.20;95.50
19330;DHT22;9799;48.214;16.388;2023-03-23T18:57:54;18.10;95.60
19330;DHT22;9799;48.214;16.388;2023-03-23T19:01:17;18.10;95.80
19330;DHT22;9799;48.214;16.388;2023-03-23T19:04:42;18.00;96.20
19330;DHT22;9799;48.214;16.388;2023-03-23T19:08:05;18.00;96.10
19330;DHT22;9799;48.214;16.388;2023-03-23T19:11:27;17.90;96.60
19330;DHT22;9799;48.214;16.388;2023-03-23T19:14:49;17.90;96.70
19330;DHT22;9799;48.214;16.388;2023-03-23T19:18:12;17.80;96.80
19330;DHT22;9799;48.214;16.388;2023-03-23T19:21:37;17.80;96.90
19330;DHT22;9799;48.214;16.388;2023-03-23T19:25:00;17.80;97.30
19330;DHT22;9799;48.214;16.388;2023-03-23T19:28:26;17.80;97.20
19330;DHT22;9799;48.214;16.388;2023-03-23T19:31:49;17.80;97.50
19330;DHT22;9799;48.214;16.388;2023-03-23T19:35:11;17.70;97.80
19330;DHT22;9799;48.214;16.388;2023-03-23T19:38:36;17.70;98.00
19330;DHT22;9799;48.214;16.388;2023-03-23T19:41:58;17.70;98.30
19330;DHT22;9799;48.214;16.388;2023-03-23T19:45:20;17.60;98.80
19330;DHT22;9799;48.214;16.388;2023-03-23T19:48:42;17.60;98.90
19330;DHT22;9799;48.214;16.388;2023-03-23T19:52:07;17.60;98.80
19330;DHT22;9799;48.214;16.388;2023-03-23T19:55:31;17.60;99.00
19330;DHT22;9799;48.214;16.388;2023-03-23T19:58:53;17.50;99.30
19330;DHT22;9799;48.214;16.388;2023-03-23T20:02:18;17.50;99.60
19330;DHT22;9799;48.214;16.388;2023-03-23T20:05:40;17.40;99.90
19330;DHT22;9799;48.214;16.388;2023-03-23T20:09:03;17.30;99.90
19330;DHT22;9799;48.214;16.388;2023-03-23T20:12:28;17.30;99.90
19330;DHT22;9799;48.214;16.388;2023-03-23T20:15:51;17.30;99.90
19330;DHT22;9799;48.214;16.388;2023-03-23T20:19:13;17.30;99.90
19330;DHT22;9799;48.214;16.388;2023-03-23T20:22:36;17.30;99.90
19330;DHT22;9799;48.214;16.388;2023-03-23T20:25:59;17.30;99.90
19330;DHT22;9799;48.214;16.388;2023-03-23T20:29:22;17.40;99.90
19330;DHT22;9799;48.214;16.388;2023-03-23T20:32:44;17.30;99.90
19330;DHT22;9799;48.214;16.388;2023-03-23T20:36:07;17.30;99.90
19330;DHT22;9799;48.214;16.388;2023-03-23T20:39:31;17.30;99.90
19330;DHT22;9799;48.214;16.388;2023-03-23T20:42:53;17.30;99.90
19330;DHT22;9799;48.214;16.388;2023-03-23T20:46:21;17.40;99.90
19330;DHT22;9799;48.214;16.388;2023-03-23T20:49:43;17.30;99.90
19330;DHT22;9799;48.214;16.388;2023-03-23T20:53:05;17.30;99.90
19330;DHT22;9799;48.214;16.388;2023-03-23T20:56:28;17.20;99.90
19330;DHT22;9799;48.214;16.388;2023-03-23T20:59:51;17.20;99.90
19330;DHT22;9799;48.214;16.388;2023-03-23T21:03:16;17.10;99.90
19330;DHT22;9799;48.214;16.388;2023-03-23T21:06:39;17.00;99.90
19330;DHT22;9799;48.214;16.388;2023-03-23T21:10:02;17.00;99.90
19330;DHT22;9799;48.214;16.388;2023-03-23T21:13:24;16.90;99.90
19330;DHT22;9799;48.214;16.388;2023-03-23T21:16:47;16.90;99.90
19330;DHT22;9799;48.214;16.388;2023-03-23T21:20:10;16.80;99.90
19330;DHT22;9799;48.214;16.388;2023-03-23T21:23:33;16.70;99.90
19330;DHT22;9799;48.214;16.388;2023-03-23T21:26:56;16.70;99.90
19330;DHT22;9799;48.214;16.388;2023-03-23T21:30:18;16.70;99.90
19330;DHT22;9799;48.214;16.388;2023-03-23T21:33:40;16.70;99.90
19330;DHT22;9799;48.214;16.388;2023-03-23T21:37:03;16.70;99.90
19330;DHT22;9799;48.214;16.388;2023-03-23T21:40:25;16.60;99.90